createdAt,value
2019-05-22T00:00:16.912Z,100.0
2019-05-22T00:01:16.954Z,100.0
2019-05-22T00:02:17.230Z,100.0
2019-05-22T00:03:16.496Z,100.0
2019-05-22T00:04:16.779Z,100.0
2019-05-22T00:05:17.049Z,100.0
2019-05-22T00:06:16.289Z,100.0
2019-05-22T00:07:16.559Z,100.0
2019-05-22T00:08:17.480Z,100.0
2019-05-22T00:09:16.788Z,100.0
2019-05-22T00:10:17.053Z,100.0
2019-05-22T00:11:17.145Z,100.0
2019-05-22T00:12:16.432Z,100.0
2019-05-22T00:13:16.699Z,100.0
2019-05-22T00:14:16.974Z,100.0
2019-05-22T00:15:17.259Z,100.0
2019-05-22T00:16:16.524Z,100.0
2019-05-22T00:17:16.787Z,100.0
2019-05-22T00:18:17.068Z,100.0
2019-05-22T00:19:16.332Z,100.0
2019-05-22T00:20:16.606Z,100.0
2019-05-22T00:21:16.686Z,100.0
2019-05-22T00:22:16.951Z,100.0
2019-05-22T00:23:17.211Z,100.0
2019-05-22T00:24:16.487Z,100.0
2019-05-22T00:25:16.757Z,100.0
2019-05-22T00:26:17.027Z,100.0
2019-05-22T00:27:16.292Z,100.0
2019-05-22T00:28:16.562Z,100.0
2019-05-22T00:29:16.841Z,100.0
2019-05-22T00:30:17.123Z,100.0
2019-05-22T00:31:17.176Z,100.0
2019-05-22T00:32:16.436Z,100.0
2019-05-22T00:33:16.723Z,100.0
2019-05-22T00:34:17.013Z,100.0
2019-05-22T00:35:16.280Z,100.0
2019-05-22T00:36:16.542Z,99.9
2019-05-22T00:37:16.797Z,100.0
2019-05-22T00:38:17.068Z,100.0
2019-05-22T00:39:16.329Z,100.0
2019-05-22T00:40:16.608Z,100.0
2019-05-22T00:41:16.646Z,100.0
2019-05-22T00:42:16.915Z,100.0
2019-05-22T00:43:17.209Z,99.9
2019-05-22T00:44:16.479Z,99.8
2019-05-22T00:45:16.744Z,99.9
2019-05-22T00:46:16.998Z,99.9
2019-05-22T00:47:16.275Z,99.9
2019-05-22T00:48:16.582Z,100.0
2019-05-22T00:49:16.856Z,100.0
2019-05-22T00:50:17.132Z,100.0
2019-05-22T00:51:17.184Z,99.9
2019-05-22T00:52:16.449Z,99.9
2019-05-22T00:53:16.713Z,99.8
2019-05-22T00:54:16.979Z,99.8
2019-05-22T00:55:17.253Z,99.8
2019-05-22T00:56:16.517Z,99.8
2019-05-22T00:57:16.807Z,99.8
2019-05-22T00:58:17.085Z,99.8
2019-05-22T00:59:16.358Z,99.7
2019-05-22T01:00:16.638Z,99.8
2019-05-22T01:01:16.732Z,99.7
2019-05-22T01:02:16.996Z,99.8
2019-05-22T01:03:16.253Z,99.8
2019-05-22T01:04:16.533Z,99.8
2019-05-22T01:05:16.806Z,99.8
2019-05-22T01:06:17.074Z,99.9
2019-05-22T01:07:16.332Z,100.0
2019-05-22T01:08:16.606Z,100.0
2019-05-22T01:09:16.891Z,100.0
2019-05-22T01:10:17.186Z,99.9
2019-05-22T01:11:17.252Z,99.8
2019-05-22T01:12:16.509Z,99.8
2019-05-22T01:13:16.783Z,99.8
2019-05-22T01:14:17.050Z,99.8
2019-05-22T01:15:16.333Z,99.8
2019-05-22T01:16:16.611Z,99.9
2019-05-22T01:17:16.874Z,99.8
2019-05-22T01:18:17.142Z,99.8
2019-05-22T01:19:16.426Z,99.9
2019-05-22T01:20:16.714Z,99.9
2019-05-22T01:21:16.768Z,100.0
2019-05-22T01:22:17.035Z,99.9
2019-05-22T01:23:16.297Z,99.8
2019-05-22T01:24:16.557Z,99.9
2019-05-22T01:25:16.840Z,99.8
2019-05-22T01:26:17.120Z,99.8
2019-05-22T01:27:16.391Z,99.8
2019-05-22T01:28:16.681Z,99.8
2019-05-22T01:29:16.947Z,99.9
2019-05-22T01:30:17.208Z,99.9
2019-05-22T01:31:16.438Z,100.0
2019-05-22T01:32:16.713Z,99.9
2019-05-22T01:33:16.983Z,99.8
2019-05-22T01:34:16.263Z,99.8
2019-05-22T01:35:16.537Z,99.8
2019-05-22T01:36:16.822Z,99.9
2019-05-22T01:37:17.087Z,99.8
2019-05-22T01:38:16.350Z,99.9
2019-05-22T01:39:16.613Z,100.0
2019-05-22T01:40:16.880Z,100.0
2019-05-22T01:41:16.953Z,100.0
2019-05-22T01:42:17.220Z,100.0
2019-05-22T01:43:16.482Z,100.0
2019-05-22T01:44:16.751Z,100.0
2019-05-22T01:45:17.019Z,100.0
2019-05-22T01:46:16.308Z,99.8
2019-05-22T01:47:16.598Z,99.9
2019-05-22T01:48:16.866Z,99.8
2019-05-22T01:49:17.125Z,99.8
2019-05-22T01:50:16.415Z,100.0
2019-05-22T01:51:16.464Z,100.0
2019-05-22T01:52:16.733Z,100.0
2019-05-22T01:53:17.003Z,100.0
2019-05-22T01:54:16.273Z,100.0
2019-05-22T01:55:16.560Z,100.0
2019-05-22T01:56:16.884Z,100.0
2019-05-22T01:57:17.172Z,99.9
2019-05-22T01:58:16.437Z,99.8
2019-05-22T01:59:16.703Z,99.8
2019-05-22T02:00:16.991Z,99.9
2019-05-22T02:01:17.090Z,100.0
2019-05-22T02:02:16.365Z,100.0
2019-05-22T02:03:16.639Z,99.9
2019-05-22T02:04:16.901Z,99.9
2019-05-22T02:05:17.185Z,99.9
2019-05-22T02:06:16.454Z,99.8
2019-05-22T02:07:16.722Z,99.6
2019-05-22T02:08:16.989Z,99.7
2019-05-22T02:09:17.255Z,99.7
2019-05-22T02:10:16.550Z,99.7
2019-05-22T02:11:16.575Z,99.7
2019-05-22T02:12:16.847Z,99.8
2019-05-22T02:13:17.111Z,99.8
2019-05-22T02:14:16.381Z,99.9
2019-05-22T02:15:16.658Z,99.9
2019-05-22T02:16:16.926Z,100.0
2019-05-22T02:17:17.196Z,99.9
2019-05-22T02:18:16.452Z,99.9
2019-05-22T02:19:16.714Z,99.8
2019-05-22T02:20:17.061Z,99.9
2019-05-22T02:21:17.046Z,99.9
2019-05-22T02:22:16.311Z,100.0
2019-05-22T02:23:16.584Z,100.0
2019-05-22T02:24:16.844Z,100.0
2019-05-22T02:25:17.112Z,100.0
2019-05-22T02:26:16.387Z,100.0
2019-05-22T02:27:16.656Z,100.0
2019-05-22T02:28:16.926Z,100.0
2019-05-22T02:29:17.205Z,100.0
2019-05-22T02:30:16.502Z,100.0
2019-05-22T02:31:16.551Z,100.0
2019-05-22T02:32:16.834Z,100.0
2019-05-22T02:33:17.123Z,100.0
2019-05-22T02:34:16.453Z,100.0
2019-05-22T02:35:16.754Z,100.0
2019-05-22T02:36:17.039Z,100.0
2019-05-22T02:37:16.328Z,100.0
2019-05-22T02:38:16.628Z,100.0
2019-05-22T02:39:16.897Z,100.0
2019-05-22T02:40:17.183Z,100.0
2019-05-22T02:41:17.237Z,100.0
2019-05-22T02:42:16.522Z,100.0
2019-05-22T02:43:16.784Z,100.0
2019-05-22T02:44:17.054Z,100.0
2019-05-22T02:45:16.355Z,100.0
2019-05-22T02:46:17.086Z,100.0
2019-05-22T02:47:21.232Z,100.0
2019-05-22T02:48:16.727Z,100.0
2019-05-22T02:49:17.015Z,100.0
2019-05-22T02:50:16.296Z,100.0
2019-05-22T02:51:16.387Z,100.0
2019-05-22T02:52:16.737Z,100.0
2019-05-22T02:53:17.022Z,100.0
2019-05-22T02:54:16.317Z,100.0
2019-05-22T02:55:16.581Z,100.0
2019-05-22T02:56:16.851Z,100.0
2019-05-22T02:57:17.120Z,100.0
2019-05-22T02:58:16.402Z,100.0
2019-05-22T02:59:16.714Z,100.0
2019-05-22T03:00:17.044Z,100.0
2019-05-22T03:01:17.069Z,100.0
2019-05-22T03:02:16.370Z,100.0
2019-05-22T03:03:16.632Z,100.0
2019-05-22T03:04:16.896Z,100.0
2019-05-22T03:05:17.179Z,100.0
2019-05-22T03:06:16.473Z,100.0
2019-05-22T03:07:16.739Z,100.0
2019-05-22T03:08:17.014Z,100.0
2019-05-22T03:09:16.312Z,100.0
2019-05-22T03:10:16.607Z,100.0
2019-05-22T03:11:16.643Z,100.0
2019-05-22T03:12:16.915Z,100.0
2019-05-22T03:13:17.199Z,100.0
2019-05-22T03:14:16.477Z,100.0
2019-05-22T03:15:16.802Z,100.0
2019-05-22T03:16:17.062Z,100.0
2019-05-22T03:17:16.372Z,100.0
2019-05-22T03:18:16.672Z,100.0
2019-05-22T03:19:16.938Z,100.0
2019-05-22T03:20:17.321Z,100.0
2019-05-22T03:21:16.292Z,100.0
2019-05-22T03:22:16.574Z,100.0
2019-05-22T03:23:16.841Z,100.0
2019-05-22T03:24:17.122Z,100.0
2019-05-22T03:25:16.412Z,100.0
2019-05-22T03:26:16.678Z,100.0
2019-05-22T03:27:16.960Z,100.0
2019-05-22T03:28:17.309Z,100.0
2019-05-22T03:29:16.579Z,100.0
2019-05-22T03:30:17.037Z,100.0
2019-05-22T03:31:16.975Z,100.0
2019-05-22T03:32:16.314Z,99.9
2019-05-22T03:33:16.713Z,99.9
2019-05-22T03:34:17.187Z,99.8
2019-05-22T03:35:16.559Z,99.8
2019-05-22T03:36:16.858Z,100.0
2019-05-22T03:37:17.158Z,100.0
2019-05-22T03:38:16.420Z,100.0
2019-05-22T03:39:16.703Z,99.8
2019-05-22T03:40:17.096Z,99.9
2019-05-22T03:41:17.048Z,99.9
2019-05-22T03:42:16.337Z,99.8
2019-05-22T03:43:16.611Z,99.8
2019-05-22T03:44:16.874Z,99.8
2019-05-22T03:45:17.143Z,99.8
2019-05-22T03:46:16.429Z,99.7
2019-05-22T03:47:16.719Z,99.8
2019-05-22T03:48:16.989Z,99.7
2019-05-22T03:49:30.250Z,99.7
2019-05-22T03:50:17.046Z,99.5
2019-05-22T03:51:17.133Z,99.7
2019-05-22T03:52:16.421Z,99.5
2019-05-22T03:53:16.716Z,99.5
2019-05-22T03:54:17.008Z,99.5
2019-05-22T03:55:16.310Z,99.5
2019-05-22T03:56:16.631Z,99.6
2019-05-22T03:57:16.928Z,99.7
2019-05-22T03:58:17.197Z,99.7
2019-05-22T03:59:16.526Z,99.6
2019-05-22T04:00:16.821Z,99.6
2019-05-22T04:01:16.882Z,99.5
2019-05-22T04:02:17.149Z,99.5
2019-05-22T04:03:16.426Z,99.5
2019-05-22T04:04:16.740Z,99.7
2019-05-22T04:05:17.044Z,99.6
2019-05-22T04:06:16.309Z,99.7
2019-05-22T04:07:16.584Z,99.7
2019-05-22T04:08:16.865Z,99.7
2019-05-22T04:09:17.149Z,99.7
2019-05-22T04:10:16.428Z,99.7
2019-05-22T04:11:16.508Z,99.8
2019-05-22T04:12:16.785Z,99.7
2019-05-22T04:13:17.052Z,99.7
2019-05-22T04:14:16.739Z,99.5
2019-05-22T04:15:17.012Z,99.4
2019-05-22T04:16:16.293Z,99.5
2019-05-22T04:17:16.585Z,99.5
2019-05-22T04:18:16.858Z,99.4
2019-05-22T04:19:17.169Z,99.5
2019-05-22T04:20:16.459Z,99.6
2019-05-22T04:21:16.707Z,99.6
2019-05-22T04:22:17.015Z,99.5
2019-05-22T04:23:16.298Z,99.5
2019-05-22T04:24:16.592Z,99.5
2019-05-22T04:25:16.893Z,99.6
2019-05-22T04:26:17.232Z,99.6
2019-05-22T04:27:16.530Z,99.6
2019-05-22T04:28:16.809Z,99.6
2019-05-22T04:29:17.102Z,99.6
2019-05-22T04:30:16.391Z,99.4
2019-05-22T04:31:16.453Z,99.5
2019-05-22T04:32:16.732Z,99.5
2019-05-22T04:33:17.023Z,99.5
2019-05-22T04:34:16.336Z,99.4
2019-05-22T04:35:16.661Z,99.3
2019-05-22T04:36:17.010Z,99.3
2019-05-22T04:37:16.303Z,99.3
2019-05-22T04:38:16.611Z,99.3
2019-05-22T04:39:16.904Z,99.3
2019-05-22T04:40:17.189Z,99.3
2019-05-22T04:41:17.248Z,99.3
2019-05-22T04:42:16.574Z,99.3
2019-05-22T04:43:20.912Z,99.3
2019-05-22T04:44:16.368Z,99.2
2019-05-22T04:45:16.651Z,99.2
2019-05-22T04:46:16.924Z,99.2
2019-05-22T04:47:17.207Z,99.2
2019-05-22T04:48:16.485Z,99.3
2019-05-22T04:49:16.744Z,99.2
2019-05-22T04:50:17.023Z,99.3
2019-05-22T04:51:17.095Z,99.5
2019-05-22T04:52:16.365Z,99.5
2019-05-22T04:53:16.638Z,99.5
2019-05-22T04:54:16.941Z,99.5
2019-05-22T04:55:17.235Z,99.5
2019-05-22T04:56:16.504Z,99.5
2019-05-22T04:57:16.801Z,99.4
2019-05-22T04:58:17.092Z,99.4
2019-05-22T04:59:16.367Z,99.3
2019-05-22T05:00:16.684Z,99.3
2019-05-22T05:01:16.862Z,99.3
2019-05-22T05:02:17.134Z,99.3
2019-05-22T05:03:16.415Z,99.2
2019-05-22T05:04:16.686Z,99.2
2019-05-22T05:05:16.962Z,99.2
2019-05-22T05:06:17.314Z,99.3
2019-05-22T05:07:16.582Z,99.2
2019-05-22T05:08:16.860Z,99.2
2019-05-22T05:09:17.126Z,99.2
2019-05-22T05:10:16.422Z,99.1
2019-05-22T05:11:16.453Z,99.2
2019-05-22T05:12:16.720Z,99.0
2019-05-22T05:13:16.982Z,99.2
2019-05-22T05:14:17.249Z,99.2
2019-05-22T05:15:16.542Z,99.2
2019-05-22T05:16:16.864Z,99.0
2019-05-22T05:17:17.123Z,99.1
2019-05-22T05:18:16.401Z,99.2
2019-05-22T05:19:16.659Z,99.2
2019-05-22T05:20:22.974Z,99.2
2019-05-22T05:21:17.028Z,99.2
2019-05-22T05:22:16.296Z,99.2
2019-05-22T05:23:16.570Z,99.1
2019-05-22T05:24:16.841Z,99.2
2019-05-22T05:25:17.111Z,99.2
2019-05-22T05:26:16.385Z,99.1
2019-05-22T05:27:16.655Z,99.0
2019-05-22T05:28:16.928Z,99.0
2019-05-22T05:29:17.194Z,99.0
2019-05-22T05:30:16.479Z,99.0
2019-05-22T05:31:16.567Z,99.0
2019-05-22T05:32:16.849Z,99.1
2019-05-22T05:33:17.121Z,98.9
2019-05-22T05:34:16.423Z,98.9
2019-05-22T05:35:16.701Z,99.0
2019-05-22T05:36:16.960Z,98.9
2019-05-22T05:37:17.340Z,98.8
2019-05-22T05:38:16.633Z,98.8
2019-05-22T05:39:16.901Z,98.8
2019-05-22T05:40:17.177Z,98.8
2019-05-22T05:41:17.244Z,98.8
2019-05-22T05:42:16.523Z,99.0
2019-05-22T05:43:16.794Z,99.0
2019-05-22T05:44:17.063Z,99.0
2019-05-22T05:45:16.345Z,98.9
2019-05-22T05:46:16.616Z,98.8
2019-05-22T05:47:16.912Z,98.8
2019-05-22T05:48:17.192Z,98.8
2019-05-22T05:49:16.484Z,98.8
2019-05-22T05:50:16.759Z,98.8
2019-05-22T05:51:16.816Z,98.7
2019-05-22T05:52:17.081Z,98.7
2019-05-22T05:53:16.356Z,98.7
2019-05-22T05:54:16.638Z,98.7
2019-05-22T05:55:16.931Z,98.7
2019-05-22T05:56:17.209Z,98.7
2019-05-22T05:57:16.475Z,98.6
2019-05-22T05:58:16.733Z,98.8
2019-05-22T05:59:17.071Z,98.8
2019-05-22T06:00:16.373Z,98.8
2019-05-22T06:01:16.433Z,98.8
2019-05-22T06:02:16.701Z,98.8
2019-05-22T06:03:16.966Z,98.9
2019-05-22T06:04:17.228Z,98.8
2019-05-22T06:05:16.501Z,98.8
2019-05-22T06:06:16.766Z,98.7
2019-05-22T06:07:17.135Z,98.7
2019-05-22T06:08:16.424Z,98.8
2019-05-22T06:09:16.713Z,98.8
2019-05-22T06:10:16.987Z,98.8
2019-05-22T06:11:17.064Z,98.7
2019-05-22T06:12:16.319Z,98.7
2019-05-22T06:13:16.602Z,98.7
2019-05-22T06:14:16.870Z,98.7
2019-05-22T06:15:17.150Z,98.6
2019-05-22T06:16:16.423Z,98.6
2019-05-22T06:17:16.687Z,98.7
2019-05-22T06:18:16.952Z,98.7
2019-05-22T06:19:17.293Z,98.7
2019-05-22T06:20:16.581Z,98.8
2019-05-22T06:21:16.644Z,98.8
2019-05-22T06:22:16.906Z,98.6
2019-05-22T06:23:17.221Z,98.4
2019-05-22T06:24:16.497Z,98.5
2019-05-22T06:25:17.040Z,98.2
2019-05-22T06:26:16.332Z,98.2
2019-05-22T06:27:16.599Z,98.4
2019-05-22T06:28:16.867Z,98.6
2019-05-22T06:29:17.158Z,98.5
2019-05-22T06:30:16.434Z,98.5
2019-05-22T06:31:16.495Z,98.5
2019-05-22T06:32:16.760Z,98.6
2019-05-22T06:33:17.037Z,98.6
2019-05-22T06:34:16.308Z,98.6
2019-05-22T06:35:16.595Z,98.7
2019-05-22T06:36:16.878Z,98.8
2019-05-22T06:37:17.153Z,98.8
2019-05-22T06:38:16.432Z,98.9
2019-05-22T06:39:16.700Z,98.9
2019-05-22T06:40:16.987Z,99.0
2019-05-22T06:41:17.034Z,98.9
2019-05-22T06:42:16.305Z,99.0
2019-05-22T06:43:16.579Z,99.1
2019-05-22T06:44:16.863Z,99.2
2019-05-22T06:45:17.139Z,99.1
2019-05-22T06:46:16.499Z,99.0
2019-05-22T06:47:16.769Z,99.2
2019-05-22T06:48:17.028Z,99.2
2019-05-22T06:49:16.294Z,99.2
2019-05-22T06:50:16.570Z,99.2
2019-05-22T06:51:19.918Z,99.5
2019-05-22T06:52:17.221Z,99.5
2019-05-22T06:53:16.504Z,99.5
2019-05-22T06:54:16.776Z,99.4
2019-05-22T06:55:17.048Z,99.2
2019-05-22T06:56:16.324Z,99.2
2019-05-22T06:57:16.591Z,99.0
2019-05-22T06:58:16.873Z,99.0
2019-05-22T06:59:17.142Z,99.0
2019-05-22T07:00:16.420Z,99.0
2019-05-22T07:01:16.487Z,99.0
2019-05-22T07:02:16.760Z,98.9
2019-05-22T07:03:17.033Z,98.8
2019-05-22T07:04:16.303Z,98.8
2019-05-22T07:05:16.582Z,98.8
2019-05-22T07:06:16.855Z,98.8
2019-05-22T07:07:17.134Z,99.0
2019-05-22T07:08:16.459Z,98.9
2019-05-22T07:09:16.776Z,99.0
2019-05-22T07:10:17.078Z,99.0
2019-05-22T07:11:17.170Z,98.8
2019-05-22T07:12:16.445Z,98.8
2019-05-22T07:13:16.713Z,98.8
2019-05-22T07:14:16.987Z,99.0
2019-05-22T07:15:17.267Z,99.0
2019-05-22T07:16:16.533Z,98.8
2019-05-22T07:17:16.805Z,98.8
2019-05-22T07:18:17.085Z,98.8
2019-05-22T07:19:16.353Z,98.9
2019-05-22T07:20:16.628Z,98.7
2019-05-22T07:21:16.688Z,98.5
2019-05-22T07:22:16.961Z,98.5
2019-05-22T07:23:17.231Z,98.5
2019-05-22T07:24:16.513Z,98.7
2019-05-22T07:25:16.795Z,98.5
2019-05-22T07:26:17.086Z,98.5
2019-05-22T07:27:16.360Z,98.5
2019-05-22T07:28:16.654Z,98.5
2019-05-22T07:29:16.925Z,98.2
2019-05-22T07:30:17.215Z,98.0
2019-05-22T07:31:16.272Z,97.9
2019-05-22T07:32:16.548Z,98.1
2019-05-22T07:33:16.823Z,98.3
2019-05-22T07:34:17.095Z,98.3
2019-05-22T07:35:16.366Z,98.3
2019-05-22T07:36:17.590Z,98.2
2019-05-22T07:37:16.857Z,98.2
2019-05-22T07:38:17.509Z,98.2
2019-05-22T07:39:16.811Z,98.2
2019-05-22T07:40:19.150Z,98.2
2019-05-22T07:41:17.154Z,98.3
2019-05-22T07:42:16.422Z,98.0
2019-05-22T07:43:16.702Z,97.8
2019-05-22T07:44:16.968Z,98.0
2019-05-22T07:45:17.235Z,98.0
2019-05-22T07:46:16.511Z,97.7
2019-05-22T07:47:16.796Z,97.7
2019-05-22T07:48:17.095Z,97.8
2019-05-22T07:49:16.378Z,97.8
2019-05-22T07:50:16.673Z,97.5
2019-05-22T07:51:16.715Z,97.5
2019-05-22T07:52:16.982Z,97.5
2019-05-22T07:53:17.268Z,97.5
2019-05-22T07:54:16.544Z,97.3
2019-05-22T07:55:16.818Z,97.5
2019-05-22T07:56:17.125Z,97.8
2019-05-22T07:57:16.397Z,97.5
2019-05-22T07:58:16.691Z,97.6
2019-05-22T07:59:16.954Z,97.5
2019-05-22T08:00:17.232Z,97.5
2019-05-22T08:01:16.286Z,97.7
2019-05-22T08:02:16.556Z,97.7
2019-05-22T08:03:16.830Z,97.4
2019-05-22T08:04:17.106Z,97.6
2019-05-22T08:05:16.388Z,97.5
2019-05-22T08:06:16.670Z,97.4
2019-05-22T08:07:16.929Z,97.8
2019-05-22T08:08:18.993Z,97.7
2019-05-22T08:09:16.279Z,97.5
2019-05-22T08:10:16.576Z,97.5
2019-05-22T08:11:16.650Z,97.6
2019-05-22T08:12:16.921Z,97.4
2019-05-22T08:13:17.207Z,97.4
2019-05-22T08:14:16.482Z,97.6
2019-05-22T08:15:16.754Z,97.1
2019-05-22T08:16:17.084Z,96.4
2019-05-22T08:17:16.377Z,96.3
2019-05-22T08:18:16.659Z,96.0
2019-05-22T08:19:16.934Z,96.3
2019-05-22T08:20:17.219Z,95.7
2019-05-22T08:21:16.294Z,95.4
2019-05-22T08:22:16.558Z,95.5
2019-05-22T08:23:16.830Z,95.7
2019-05-22T08:24:17.111Z,95.5
2019-05-22T08:25:16.388Z,95.2
2019-05-22T08:26:16.795Z,94.8
2019-05-22T08:27:17.112Z,95.0
2019-05-22T08:28:16.401Z,94.5
2019-05-22T08:29:16.673Z,94.5
2019-05-22T08:30:16.962Z,94.6
2019-05-22T08:31:17.013Z,94.8
2019-05-22T08:32:16.305Z,95.0
2019-05-22T08:33:16.575Z,95.1
2019-05-22T08:34:16.849Z,94.6
2019-05-22T08:35:17.121Z,94.8
2019-05-22T08:36:16.412Z,94.5
2019-05-22T08:37:16.692Z,94.3
2019-05-22T08:38:16.959Z,94.2
2019-05-22T08:39:17.233Z,94.8
2019-05-22T08:40:16.516Z,94.5
2019-05-22T08:41:16.569Z,94.3
2019-05-22T08:42:16.845Z,94.3
2019-05-22T08:43:17.132Z,94.1
2019-05-22T08:44:17.898Z,93.8
2019-05-22T08:45:17.253Z,94.0
2019-05-22T08:46:16.540Z,94.6
2019-05-22T08:47:16.821Z,94.5
2019-05-22T08:48:17.087Z,94.3
2019-05-22T08:49:16.358Z,93.8
2019-05-22T08:50:16.648Z,94.0
2019-05-22T08:51:16.760Z,93.9
2019-05-22T08:52:24.277Z,93.8
2019-05-22T08:53:16.925Z,93.8
2019-05-22T08:54:17.193Z,93.2
2019-05-22T08:55:16.459Z,93.8
2019-05-22T08:56:16.787Z,93.5
2019-05-22T08:57:17.054Z,93.7
2019-05-22T08:58:16.327Z,93.8
2019-05-22T08:59:20.337Z,94.2
2019-05-22T09:00:16.675Z,94.0
2019-05-22T09:01:16.764Z,93.8
2019-05-22T09:02:17.043Z,93.2
2019-05-22T09:03:16.307Z,92.6
2019-05-22T09:04:16.585Z,92.2
2019-05-22T09:05:21.848Z,92.9
2019-05-22T09:06:16.568Z,92.7
2019-05-22T09:07:16.833Z,92.7
2019-05-22T09:08:17.108Z,92.8
2019-05-22T09:09:16.388Z,93.7
2019-05-22T09:10:16.662Z,93.2
2019-05-22T09:11:16.751Z,92.2
2019-05-22T09:12:17.073Z,92.3
2019-05-22T09:13:16.366Z,92.2
2019-05-22T09:14:16.637Z,92.8
2019-05-22T09:15:16.922Z,92.9
2019-05-22T09:16:17.208Z,93.3
2019-05-22T09:17:16.597Z,93.8
2019-05-22T09:18:16.871Z,94.5
2019-05-22T09:19:17.137Z,94.5
2019-05-22T09:20:16.429Z,94.4
2019-05-22T09:21:16.468Z,94.3
2019-05-22T09:22:16.810Z,93.5
2019-05-22T09:23:17.092Z,93.2
2019-05-22T09:24:16.365Z,92.9
2019-05-22T09:25:17.326Z,93.0
2019-05-22T09:26:16.635Z,92.8
2019-05-22T09:27:16.898Z,93.3
2019-05-22T09:28:17.165Z,93.5
2019-05-22T09:29:16.443Z,94.1
2019-05-22T09:30:16.740Z,93.5
2019-05-22T09:31:16.800Z,93.5
2019-05-22T09:32:17.086Z,93.5
2019-05-22T09:33:16.401Z,93.7
2019-05-22T09:34:16.672Z,94.2
2019-05-22T09:35:16.952Z,94.2
2019-05-22T09:36:17.273Z,93.8
2019-05-22T09:37:16.540Z,92.8
2019-05-22T09:38:16.822Z,93.2
2019-05-22T09:39:17.119Z,92.9
2019-05-22T09:40:16.408Z,93.3
2019-05-22T09:41:16.483Z,93.1
2019-05-22T09:42:16.916Z,93.3
2019-05-22T09:43:17.629Z,93.2
2019-05-22T09:44:16.895Z,93.5
2019-05-22T09:45:17.170Z,93.4
2019-05-22T09:46:16.435Z,93.8
2019-05-22T09:47:16.723Z,93.2
2019-05-22T09:48:16.996Z,93.5
2019-05-22T09:49:16.273Z,93.0
2019-05-22T09:50:16.541Z,93.3
2019-05-22T09:51:16.617Z,93.8
2019-05-22T09:52:16.898Z,93.7
2019-05-22T09:53:17.170Z,93.9
2019-05-22T09:54:16.450Z,93.3
2019-05-22T09:55:16.728Z,93.4
2019-05-22T09:56:17.000Z,93.0
2019-05-22T09:57:16.270Z,93.0
2019-05-22T09:58:16.554Z,92.9
2019-05-22T09:59:16.823Z,92.2
2019-05-22T10:00:17.109Z,92.5
2019-05-22T10:01:17.169Z,92.6
2019-05-22T10:02:16.432Z,92.5
2019-05-22T10:03:16.666Z,92.7
2019-05-22T10:04:16.938Z,92.2
2019-05-22T10:05:17.215Z,92.0
2019-05-22T10:06:16.494Z,91.8
2019-05-22T10:07:16.764Z,92.0
2019-05-22T10:08:17.039Z,91.2
2019-05-22T10:09:16.309Z,91.0
2019-05-22T10:10:16.591Z,91.2
2019-05-22T10:11:16.656Z,91.0
2019-05-22T10:12:16.924Z,91.5
2019-05-22T10:13:17.276Z,90.6
2019-05-22T10:14:16.674Z,90.2
2019-05-22T10:15:17.231Z,90.2
2019-05-22T10:16:16.509Z,90.3
2019-05-22T10:17:16.781Z,89.9
2019-05-22T10:18:17.115Z,90.4
2019-05-22T10:19:16.409Z,90.8
2019-05-22T10:20:16.683Z,90.2
2019-05-22T10:21:16.741Z,89.8
2019-05-22T10:22:17.011Z,90.0
2019-05-22T10:23:16.682Z,90.2
2019-05-22T10:24:16.970Z,90.0
2019-05-22T10:25:17.601Z,90.2
2019-05-22T10:26:16.890Z,89.5
2019-05-22T10:27:17.244Z,89.6
2019-05-22T10:28:16.525Z,90.0
2019-05-22T10:29:16.792Z,89.9
2019-05-22T10:30:17.077Z,90.3
2019-05-22T10:31:18.084Z,89.1
2019-05-22T10:32:16.378Z,89.8
2019-05-22T10:33:16.668Z,89.5
2019-05-22T10:34:16.948Z,89.5
2019-05-22T10:35:17.231Z,88.9
2019-05-22T10:36:16.512Z,89.2
2019-05-22T10:37:16.794Z,89.5
2019-05-22T10:38:17.193Z,88.5
2019-05-22T10:39:16.499Z,89.1
2019-05-22T10:40:16.773Z,88.8
2019-05-22T10:41:16.846Z,87.8
2019-05-22T10:42:17.116Z,87.8
2019-05-22T10:43:17.003Z,87.0
2019-05-22T10:44:16.387Z,86.6
2019-05-22T10:45:16.683Z,86.8
2019-05-22T10:46:16.964Z,86.2
2019-05-22T10:47:19.117Z,86.6
2019-05-22T10:48:16.414Z,86.5
2019-05-22T10:49:16.678Z,87.3
2019-05-22T10:50:16.940Z,86.2
2019-05-22T10:51:17.015Z,86.2
2019-05-22T10:52:16.295Z,84.9
2019-05-22T10:53:33.330Z,85.0
2019-05-22T10:54:16.939Z,85.2
2019-05-22T10:55:17.296Z,86.6
2019-05-22T10:56:16.616Z,86.0
2019-05-22T10:57:16.889Z,86.7
2019-05-22T10:58:17.259Z,87.1
2019-05-22T10:59:16.617Z,87.1
2019-05-22T11:00:16.905Z,87.7
2019-05-22T11:01:16.969Z,86.7
2019-05-22T11:02:17.243Z,86.5
2019-05-22T11:03:16.550Z,86.4
2019-05-22T11:04:19.766Z,86.6
2019-05-22T11:05:17.129Z,86.6
2019-05-22T11:06:16.413Z,86.7
2019-05-22T11:07:16.718Z,86.8
2019-05-22T11:08:17.009Z,87.3
2019-05-22T11:09:16.282Z,86.8
2019-05-22T11:10:16.579Z,87.2
2019-05-22T11:11:16.651Z,87.5
2019-05-22T11:12:16.930Z,87.2
2019-05-22T11:13:17.208Z,87.0
2019-05-22T11:14:16.485Z,86.4
2019-05-22T11:15:16.749Z,86.2
2019-05-22T11:16:17.030Z,86.2
2019-05-22T11:17:16.303Z,85.7
2019-05-22T11:18:16.573Z,85.2
2019-05-22T11:19:16.862Z,85.3
2019-05-22T11:20:17.140Z,84.6
2019-05-22T11:21:17.224Z,84.8
2019-05-22T11:22:16.511Z,84.2
2019-05-22T11:23:16.779Z,84.5
2019-05-22T11:24:17.055Z,84.8
2019-05-22T11:25:16.342Z,85.2
2019-05-22T11:26:16.624Z,85.2
2019-05-22T11:27:16.896Z,84.9
2019-05-22T11:28:17.165Z,84.2
2019-05-22T11:29:16.493Z,84.4
2019-05-22T11:30:16.833Z,84.0
2019-05-22T11:31:16.865Z,84.2
2019-05-22T11:32:17.136Z,83.8
2019-05-22T11:33:16.425Z,83.2
2019-05-22T11:34:16.706Z,83.9
2019-05-22T11:35:16.975Z,80.8
2019-05-22T11:36:17.267Z,81.7
2019-05-22T11:37:16.574Z,80.3
2019-05-22T11:38:16.898Z,79.9
2019-05-22T11:39:17.164Z,79.7
2019-05-22T11:40:16.446Z,79.0
2019-05-22T11:41:16.521Z,80.4
2019-05-22T11:42:16.788Z,82.0
2019-05-22T11:43:17.074Z,80.9
2019-05-22T11:44:16.346Z,81.0
2019-05-22T11:45:16.660Z,80.0
2019-05-22T11:46:16.955Z,80.3
2019-05-22T11:47:17.222Z,80.5
2019-05-22T11:48:16.512Z,80.8
2019-05-22T11:49:16.930Z,81.0
2019-05-22T11:50:16.305Z,81.2
2019-05-22T11:51:16.357Z,81.0
2019-05-22T11:52:16.627Z,81.7
2019-05-22T11:53:16.901Z,81.7
2019-05-22T11:54:17.180Z,81.7
2019-05-22T11:55:16.458Z,82.4
2019-05-22T11:56:16.732Z,82.7
2019-05-22T11:57:17.001Z,83.2
2019-05-22T11:58:16.271Z,83.8
2019-05-22T11:59:16.543Z,84.1
2019-05-22T12:00:16.828Z,84.4
2019-05-22T12:01:16.885Z,84.2
2019-05-22T12:02:17.158Z,84.2
2019-05-22T12:03:16.439Z,83.9
2019-05-22T12:04:16.755Z,83.8
2019-05-22T12:05:17.144Z,84.1
2019-05-22T12:06:16.471Z,84.0
2019-05-22T12:07:16.749Z,84.1
2019-05-22T12:08:17.018Z,84.2
2019-05-22T12:09:16.297Z,83.8
2019-05-22T12:10:16.584Z,84.2
2019-05-22T12:11:16.627Z,83.7
2019-05-22T12:12:16.908Z,83.8
2019-05-22T12:13:17.193Z,83.3
2019-05-22T12:14:16.478Z,83.5
2019-05-22T12:15:16.744Z,84.1
2019-05-22T12:16:17.048Z,84.3
2019-05-22T12:17:16.324Z,84.6
2019-05-22T12:18:16.610Z,84.0
2019-05-22T12:19:16.876Z,84.3
2019-05-22T12:20:17.176Z,84.1
2019-05-22T12:21:17.223Z,84.3
2019-05-22T12:22:20.206Z,83.9
2019-05-22T12:23:16.557Z,84.2
2019-05-22T12:24:32.486Z,84.7
2019-05-22T12:25:16.667Z,85.3
2019-05-22T12:26:16.927Z,84.6
2019-05-22T12:27:17.198Z,84.1
2019-05-22T12:28:16.480Z,84.0
2019-05-22T12:29:17.992Z,83.8
2019-05-22T12:30:16.562Z,82.8
2019-05-22T12:31:16.468Z,82.9
2019-05-22T12:32:16.739Z,82.7
2019-05-22T12:33:16.996Z,83.1
2019-05-22T12:34:16.255Z,82.6
2019-05-22T12:35:16.526Z,82.8
2019-05-22T12:36:16.787Z,83.2
2019-05-22T12:37:17.071Z,82.7
2019-05-22T12:38:16.354Z,82.6
2019-05-22T12:39:16.626Z,82.8
2019-05-22T12:40:16.903Z,82.3
2019-05-22T12:41:16.966Z,81.7
2019-05-22T12:42:17.232Z,81.7
2019-05-22T12:43:16.501Z,82.2
2019-05-22T12:44:16.791Z,82.0
2019-05-22T12:45:17.075Z,81.2
2019-05-22T12:46:16.354Z,80.8
2019-05-22T12:47:16.639Z,80.7
2019-05-22T12:48:16.914Z,80.9
2019-05-22T12:49:17.189Z,80.3
2019-05-22T12:50:16.481Z,80.3
2019-05-22T12:51:16.531Z,80.4
2019-05-22T12:52:16.859Z,78.8
2019-05-22T12:53:17.146Z,78.7
2019-05-22T12:54:16.448Z,79.6
2019-05-22T12:55:16.726Z,78.6
2019-05-22T12:56:17.013Z,78.8
2019-05-22T12:57:16.284Z,79.0
2019-05-22T12:58:16.556Z,78.6
2019-05-22T12:59:16.918Z,78.3
2019-05-22T13:00:17.239Z,77.8
2019-05-22T13:01:16.308Z,78.2
2019-05-22T13:02:16.615Z,78.2
2019-05-22T13:03:16.908Z,78.5
2019-05-22T13:04:17.178Z,76.9
2019-05-22T13:05:16.455Z,76.9
2019-05-22T13:06:16.741Z,77.8
2019-05-22T13:07:17.010Z,76.8
2019-05-22T13:08:16.284Z,77.4
2019-05-22T13:09:16.560Z,76.3
2019-05-22T13:10:16.891Z,76.0
2019-05-22T13:11:16.898Z,75.5
2019-05-22T13:12:17.265Z,75.0
2019-05-22T13:13:16.539Z,75.1